Macedonia, Ohio
Current Conditions -  °F | °C
As of 12:14 AM on Sunday 21 Dec 2014 (Local Time) from KPOV Reporting Station
NA  
Wind Chill: 28°   Ceiling: NA
Heat Index: 28°   Visibility: 10mi
Dew Point: 22°   Wind: 0mph
Humidity: 77%   Direction: NA
Pressure: 30.25"   Gusts: NA
Location:  41.31°N, 81.5°W
Report Text: KPOV 210514Z AUTO 00000KT 10SM M02/M06 A3025 RMK AO2 T10201056
Loading
Personal Weather Stations






























Interactive Weather Map New forecast layout! Learn more

10-Day Weather Forecast

Advertisements
Track Severe Weather on mobile